sensor_id;sensor_type;location;lat;lon;timestamp;temperature;humidity
21787;DHT22;11055;50.870;4.316;2023-03-01T00:01:53;4.50;97.20
21787;DHT22;11055;50.870;4.316;2023-03-01T00:04:19;4.40;97.40
21787;DHT22;11055;50.870;4.316;2023-03-01T00:06:44;4.50;97.50
21787;DHT22;11055;50.870;4.316;2023-03-01T00:09:12;4.30;97.90
21787;DHT22;11055;50.870;4.316;2023-03-01T00:11:38;4.10;98.90
21787;DHT22;11055;50.870;4.316;2023-03-01T00:14:04;4.00;99.90
21787;DHT22;11055;50.870;4.316;2023-03-01T00:16:32;4.00;99.90
21787;DHT22;11055;50.870;4.316;2023-03-01T00:19:01;4.00;99.90
21787;DHT22;11055;50.870;4.316;2023-03-01T00:21:27;4.20;99.90
21787;DHT22;11055;50.870;4.316;2023-03-01T00:23:53;4.30;99.90
21787;DHT22;11055;50.870;4.316;2023-03-01T00:26:21;4.20;99.90
21787;DHT22;11055;50.870;4.316;2023-03-01T00:28:47;4.30;99.90
21787;DHT22;11055;50.870;4.316;2023-03-01T00:31:19;4.40;99.90
21787;DHT22;11055;50.870;4.316;2023-03-01T00:33:45;4.30;99.80
21787;DHT22;11055;50.870;4.316;2023-03-01T00:36:13;4.40;99.80
21787;DHT22;11055;50.870;4.316;2023-03-01T00:38:41;4.50;99.70
21787;DHT22;11055;50.870;4.316;2023-03-01T00:41:09;4.50;99.80
21787;DHT22;11055;50.870;4.316;2023-03-01T00:43:35;4.40;99.60
21787;DHT22;11055;50.870;4.316;2023-03-01T00:46:06;4.30;99.90
21787;DHT22;11055;50.870;4.316;2023-03-01T00:48:32;4.40;99.90
21787;DHT22;11055;50.870;4.316;2023-03-01T00:51:08;4.30;99.90
21787;DHT22;11055;50.870;4.316;2023-03-01T00:53:34;4.30;99.90
21787;DHT22;11055;50.870;4.316;2023-03-01T00:56:00;4.40;99.90
21787;DHT22;11055;50.870;4.316;2023-03-01T00:58:26;4.40;99.90
21787;DHT22;11055;50.870;4.316;2023-03-01T01:00:52;4.40;99.90
21787;DHT22;11055;50.870;4.316;2023-03-01T01:03:18;4.50;99.90
21787;DHT22;11055;50.870;4.316;2023-03-01T01:05:44;4.20;99.90
21787;DHT22;11055;50.870;4.316;2023-03-01T01:08:10;4.00;99.90
21787;DHT22;11055;50.870;4.316;2023-03-01T01:10:36;3.80;99.90
21787;DHT22;11055;50.870;4.316;2023-03-01T01:13:02;3.80;99.90
21787;DHT22;11055;50.870;4.316;2023-03-01T01:15:28;3.80;99.90
21787;DHT22;11055;50.870;4.316;2023-03-01T01:17:53;3.90;99.90
21787;DHT22;11055;50.870;4.316;2023-03-01T01:20:20;3.90;99.90
21787;DHT22;11055;50.870;4.316;2023-03-01T01:22:46;4.10;99.90
21787;DHT22;11055;50.870;4.316;2023-03-01T01:25:11;4.10;99.90
21787;DHT22;11055;50.870;4.316;2023-03-01T01:27:37;4.10;99.90
21787;DHT22;11055;50.870;4.316;2023-03-01T01:30:04;4.00;99.90
21787;DHT22;11055;50.870;4.316;2023-03-01T01:32:30;4.00;99.90
21787;DHT22;11055;50.870;4.316;2023-03-01T01:34:55;3.90;99.90
21787;DHT22;11055;50.870;4.316;2023-03-01T01:37:21;3.90;99.90
21787;DHT22;11055;50.870;4.316;2023-03-01T01:39:47;3.80;99.90
21787;DHT22;11055;50.870;4.316;2023-03-01T01:42:15;4.00;99.90
21787;DHT22;11055;50.870;4.316;2023-03-01T01:44:42;3.90;99.90
21787;DHT22;11055;50.870;4.316;2023-03-01T01:47:16;3.90;99.90
21787;DHT22;11055;50.870;4.316;2023-03-01T01:49:56;3.90;99.90
21787;DHT22;11055;50.870;4.316;2023-03-01T01:52:29;3.90;99.90
21787;DHT22;11055;50.870;4.316;2023-03-01T01:55:11;3.90;99.90
21787;DHT22;11055;50.870;4.316;2023-03-01T01:57:40;3.90;99.90
21787;DHT22;11055;50.870;4.316;2023-03-01T02:00:19;3.90;99.90
21787;DHT22;11055;50.870;4.316;2023-03-01T02:02:47;3.80;99.90
21787;DHT22;11055;50.870;4.316;2023-03-01T02:07:59;3.60;99.90
21787;DHT22;11055;50.870;4.316;2023-03-01T02:10:25;3.40;99.90
21787;DHT22;11055;50.870;4.316;2023-03-01T02:12:52;3.40;99.90
21787;DHT22;11055;50.870;4.316;2023-03-01T02:15:19;3.50;99.90
21787;DHT22;11055;50.870;4.316;2023-03-01T02:17:44;3.40;99.90
21787;DHT22;11055;50.870;4.316;2023-03-01T02:20:24;3.30;99.90
21787;DHT22;11055;50.870;4.316;2023-03-01T02:22:52;3.30;99.90
21787;DHT22;11055;50.870;4.316;2023-03-01T02:30:42;3.20;99.90
21787;DHT22;11055;50.870;4.316;2023-03-01T02:33:29;3.10;99.90
21787;DHT22;11055;50.870;4.316;2023-03-01T02:35:59;3.10;99.90
21787;DHT22;11055;50.870;4.316;2023-03-01T02:38:25;3.00;99.90
21787;DHT22;11055;50.870;4.316;2023-03-01T02:40:52;2.90;99.90
21787;DHT22;11055;50.870;4.316;2023-03-01T02:43:23;2.80;99.90
21787;DHT22;11055;50.870;4.316;2023-03-01T02:45:56;2.80;99.90
21787;DHT22;11055;50.870;4.316;2023-03-01T02:48:22;2.70;99.90
21787;DHT22;11055;50.870;4.316;2023-03-01T02:53:55;2.70;99.90
21787;DHT22;11055;50.870;4.316;2023-03-01T02:56:11;2.70;99.90
21787;DHT22;11055;50.870;4.316;2023-03-01T02:58:41;2.60;99.90
21787;DHT22;11055;50.870;4.316;2023-03-01T03:01:11;2.80;99.90
21787;DHT22;11055;50.870;4.316;2023-03-01T03:03:36;2.80;99.90
21787;DHT22;11055;50.870;4.316;2023-03-01T03:06:02;2.80;99.90
21787;DHT22;11055;50.870;4.316;2023-03-01T03:08:28;2.80;99.90
21787;DHT22;11055;50.870;4.316;2023-03-01T03:10:53;2.60;99.90
21787;DHT22;11055;50.870;4.316;2023-03-01T03:13:19;2.40;99.90
21787;DHT22;11055;50.870;4.316;2023-03-01T03:15:45;2.40;99.90
21787;DHT22;11055;50.870;4.316;2023-03-01T03:18:12;2.30;99.90
21787;DHT22;11055;50.870;4.316;2023-03-01T03:20:40;2.30;99.90
21787;DHT22;11055;50.870;4.316;2023-03-01T03:23:06;2.30;99.90
21787;DHT22;11055;50.870;4.316;2023-03-01T03:25:32;2.40;99.90
21787;DHT22;11055;50.870;4.316;2023-03-01T03:27:58;2.50;99.90
21787;DHT22;11055;50.870;4.316;2023-03-01T03:30:29;2.60;99.90
21787;DHT22;11055;50.870;4.316;2023-03-01T03:32:56;2.80;99.90
21787;DHT22;11055;50.870;4.316;2023-03-01T03:35:27;2.80;99.90
21787;DHT22;11055;50.870;4.316;2023-03-01T03:37:55;2.80;99.90
21787;DHT22;11055;50.870;4.316;2023-03-01T03:40:30;2.60;99.90
21787;DHT22;11055;50.870;4.316;2023-03-01T03:42:55;2.50;99.90
21787;DHT22;11055;50.870;4.316;2023-03-01T03:45:21;2.50;99.90
21787;DHT22;11055;50.870;4.316;2023-03-01T03:47:47;2.60;99.90
21787;DHT22;11055;50.870;4.316;2023-03-01T03:50:15;2.50;99.90
21787;DHT22;11055;50.870;4.316;2023-03-01T03:52:41;2.50;99.90
21787;DHT22;11055;50.870;4.316;2023-03-01T03:55:09;2.40;99.90
21787;DHT22;11055;50.870;4.316;2023-03-01T03:57:35;2.40;99.90
21787;DHT22;11055;50.870;4.316;2023-03-01T04:00:01;2.40;99.90
21787;DHT22;11055;50.870;4.316;2023-03-01T04:02:30;2.40;99.90
21787;DHT22;11055;50.870;4.316;2023-03-01T04:04:55;2.40;99.90
21787;DHT22;11055;50.870;4.316;2023-03-01T04:07:21;2.50;99.90
21787;DHT22;11055;50.870;4.316;2023-03-01T04:09:47;2.50;99.90
21787;DHT22;11055;50.870;4.316;2023-03-01T04:12:12;2.50;99.90
21787;DHT22;11055;50.870;4.316;2023-03-01T04:14:38;2.60;99.90
21787;DHT22;11055;50.870;4.316;2023-03-01T04:17:04;2.60;99.90
21787;DHT22;11055;50.870;4.316;2023-03-01T04:19:31;2.60;99.90
21787;DHT22;11055;50.870;4.316;2023-03-01T04:22:04;2.30;99.90
21787;DHT22;11055;50.870;4.316;2023-03-01T04:24:35;2.20;99.90
21787;DHT22;11055;50.870;4.316;2023-03-01T04:27:01;2.20;99.90
21787;DHT22;11055;50.870;4.316;2023-03-01T04:29:27;2.30;99.90
21787;DHT22;11055;50.870;4.316;2023-03-01T04:31:52;2.40;99.90
21787;DHT22;11055;50.870;4.316;2023-03-01T04:34:18;2.30;99.90
21787;DHT22;11055;50.870;4.316;2023-03-01T04:36:44;2.20;99.90
21787;DHT22;11055;50.870;4.316;2023-03-01T04:39:09;2.30;99.90
21787;DHT22;11055;50.870;4.316;2023-03-01T04:41:39;2.40;99.90
21787;DHT22;11055;50.870;4.316;2023-03-01T04:44:06;2.50;99.90
21787;DHT22;11055;50.870;4.316;2023-03-01T04:46:32;2.50;99.90
21787;DHT22;11055;50.870;4.316;2023-03-01T04:48:57;2.50;99.90
21787;DHT22;11055;50.870;4.316;2023-03-01T04:51:23;2.50;99.90
21787;DHT22;11055;50.870;4.316;2023-03-01T04:53:49;2.50;99.90
21787;DHT22;11055;50.870;4.316;2023-03-01T04:56:15;2.50;99.90
21787;DHT22;11055;50.870;4.316;2023-03-01T04:58:43;2.40;99.90
21787;DHT22;11055;50.870;4.316;2023-03-01T05:01:17;2.40;99.90
21787;DHT22;11055;50.870;4.316;2023-03-01T05:03:46;2.40;99.90
21787;DHT22;11055;50.870;4.316;2023-03-01T05:06:12;2.30;99.90
21787;DHT22;11055;50.870;4.316;2023-03-01T05:08:38;2.40;99.90
21787;DHT22;11055;50.870;4.316;2023-03-01T05:11:04;2.20;99.90
21787;DHT22;11055;50.870;4.316;2023-03-01T05:13:30;2.10;99.90
21787;DHT22;11055;50.870;4.316;2023-03-01T05:15:59;2.10;99.90
21787;DHT22;11055;50.870;4.316;2023-03-01T05:18:27;2.10;99.90
21787;DHT22;11055;50.870;4.316;2023-03-01T05:20:54;2.10;99.90
21787;DHT22;11055;50.870;4.316;2023-03-01T05:23:22;2.00;99.90
21787;DHT22;11055;50.870;4.316;2023-03-01T05:25:48;2.00;99.90
21787;DHT22;11055;50.870;4.316;2023-03-01T05:28:14;2.00;99.90
21787;DHT22;11055;50.870;4.316;2023-03-01T05:30:40;2.10;99.90
21787;DHT22;11055;50.870;4.316;2023-03-01T05:33:07;2.10;99.90
21787;DHT22;11055;50.870;4.316;2023-03-01T05:35:42;2.10;99.90
21787;DHT22;11055;50.870;4.316;2023-03-01T05:38:09;2.10;99.90
21787;DHT22;11055;50.870;4.316;2023-03-01T05:40:39;2.10;99.90
21787;DHT22;11055;50.870;4.316;2023-03-01T05:43:05;1.80;99.90
21787;DHT22;11055;50.870;4.316;2023-03-01T05:45:31;1.90;99.90
21787;DHT22;11055;50.870;4.316;2023-03-01T05:47:58;2.00;99.90
21787;DHT22;11055;50.870;4.316;2023-03-01T05:50:29;1.90;99.90
21787;DHT22;11055;50.870;4.316;2023-03-01T05:53:04;1.90;99.90
21787;DHT22;11055;50.870;4.316;2023-03-01T05:55:32;2.00;99.90
21787;DHT22;11055;50.870;4.316;2023-03-01T05:57:59;1.90;99.90
21787;DHT22;11055;50.870;4.316;2023-03-01T06:00:27;2.00;99.90
21787;DHT22;11055;50.870;4.316;2023-03-01T06:02:57;2.00;99.90
21787;DHT22;11055;50.870;4.316;2023-03-01T06:05:24;1.80;99.90
21787;DHT22;11055;50.870;4.316;2023-03-01T06:07:49;1.90;99.90
21787;DHT22;11055;50.870;4.316;2023-03-01T06:10:16;1.80;99.90
21787;DHT22;11055;50.870;4.316;2023-03-01T06:12:42;1.80;99.90
21787;DHT22;11055;50.870;4.316;2023-03-01T06:15:10;1.70;99.90
21787;DHT22;11055;50.870;4.316;2023-03-01T06:17:38;1.70;99.90
21787;DHT22;11055;50.870;4.316;2023-03-01T06:20:11;1.70;99.90
21787;DHT22;11055;50.870;4.316;2023-03-01T06:22:37;1.70;99.90
21787;DHT22;11055;50.870;4.316;2023-03-01T06:25:03;1.70;99.90
21787;DHT22;11055;50.870;4.316;2023-03-01T06:27:28;1.60;99.90
21787;DHT22;11055;50.870;4.316;2023-03-01T06:29:54;1.60;99.90
21787;DHT22;11055;50.870;4.316;2023-03-01T06:32:20;1.60;99.90
21787;DHT22;11055;50.870;4.316;2023-03-01T06:34:45;1.60;99.90
21787;DHT22;11055;50.870;4.316;2023-03-01T06:37:11;1.50;99.90
21787;DHT22;11055;50.870;4.316;2023-03-01T06:39:37;1.60;99.90
21787;DHT22;11055;50.870;4.316;2023-03-01T06:42:03;1.60;99.90
21787;DHT22;11055;50.870;4.316;2023-03-01T06:44:29;1.60;99.90
21787;DHT22;11055;50.870;4.316;2023-03-01T06:46:55;1.60;99.90
21787;DHT22;11055;50.870;4.316;2023-03-01T06:49:20;1.60;99.90
21787;DHT22;11055;50.870;4.316;2023-03-01T06:51:46;1.60;99.90
21787;DHT22;11055;50.870;4.316;2023-03-01T06:54:12;1.70;99.90
21787;DHT22;11055;50.870;4.316;2023-03-01T06:56:38;1.70;99.90
21787;DHT22;11055;50.870;4.316;2023-03-01T06:59:04;1.50;99.90
21787;DHT22;11055;50.870;4.316;2023-03-01T07:01:30;1.50;99.90
21787;DHT22;11055;50.870;4.316;2023-03-01T07:03:56;1.30;99.90
21787;DHT22;11055;50.870;4.316;2023-03-01T07:06:23;1.20;99.90
21787;DHT22;11055;50.870;4.316;2023-03-01T07:08:49;1.10;99.90
21787;DHT22;11055;50.870;4.316;2023-03-01T07:11:15;1.20;99.90
21787;DHT22;11055;50.870;4.316;2023-03-01T07:13:41;1.10;99.90
21787;DHT22;11055;50.870;4.316;2023-03-01T07:16:07;1.30;99.90
21787;DHT22;11055;50.870;4.316;2023-03-01T07:18:33;1.20;99.90
21787;DHT22;11055;50.870;4.316;2023-03-01T07:21:04;1.30;99.90
21787;DHT22;11055;50.870;4.316;2023-03-01T07:23:30;1.20;99.90
21787;DHT22;11055;50.870;4.316;2023-03-01T07:25:55;1.20;99.90
21787;DHT22;11055;50.870;4.316;2023-03-01T07:28:23;1.30;99.90
21787;DHT22;11055;50.870;4.316;2023-03-01T07:30:49;1.40;99.90
21787;DHT22;11055;50.870;4.316;2023-03-01T07:33:14;1.50;99.90
21787;DHT22;11055;50.870;4.316;2023-03-01T07:35:40;1.50;99.90
21787;DHT22;11055;50.870;4.316;2023-03-01T07:38:06;1.40;99.90
21787;DHT22;11055;50.870;4.316;2023-03-01T07:40:31;1.40;99.90
21787;DHT22;11055;50.870;4.316;2023-03-01T07:42:58;1.40;99.90
21787;DHT22;11055;50.870;4.316;2023-03-01T07:45:24;1.40;99.90
21787;DHT22;11055;50.870;4.316;2023-03-01T07:47:51;1.40;99.90
21787;DHT22;11055;50.870;4.316;2023-03-01T07:50:18;1.30;99.90
21787;DHT22;11055;50.870;4.316;2023-03-01T07:52:47;1.20;99.90
21787;DHT22;11055;50.870;4.316;2023-03-01T07:55:14;1.30;99.90
21787;DHT22;11055;50.870;4.316;2023-03-01T07:57:40;1.30;99.90
21787;DHT22;11055;50.870;4.316;2023-03-01T08:00:06;1.50;99.90
21787;DHT22;11055;50.870;4.316;2023-03-01T08:02:32;1.60;99.90
21787;DHT22;11055;50.870;4.316;2023-03-01T08:04:58;1.70;99.90
21787;DHT22;11055;50.870;4.316;2023-03-01T08:07:24;1.70;99.90
21787;DHT22;11055;50.870;4.316;2023-03-01T08:09:49;1.70;99.90
21787;DHT22;11055;50.870;4.316;2023-03-01T08:12:15;1.70;99.90
21787;DHT22;11055;50.870;4.316;2023-03-01T08:14:42;1.80;99.90
21787;DHT22;11055;50.870;4.316;2023-03-01T08:17:08;1.80;99.90
21787;DHT22;11055;50.870;4.316;2023-03-01T08:19:34;1.70;99.90
21787;DHT22;11055;50.870;4.316;2023-03-01T08:22:01;2.00;99.90
21787;DHT22;11055;50.870;4.316;2023-03-01T08:24:28;1.90;99.90
21787;DHT22;11055;50.870;4.316;2023-03-01T08:26:53;2.00;99.90
21787;DHT22;11055;50.870;4.316;2023-03-01T08:29:19;2.00;99.90
21787;DHT22;11055;50.870;4.316;2023-03-01T08:31:45;2.00;99.90
21787;DHT22;11055;50.870;4.316;2023-03-01T08:34:14;1.90;99.90
21787;DHT22;11055;50.870;4.316;2023-03-01T08:36:41;1.90;99.90
21787;DHT22;11055;50.870;4.316;2023-03-01T08:39:09;1.90;99.90
21787;DHT22;11055;50.870;4.316;2023-03-01T08:41:35;1.90;99.90
21787;DHT22;11055;50.870;4.316;2023-03-01T08:44:02;2.00;99.90
21787;DHT22;11055;50.870;4.316;2023-03-01T08:46:29;2.20;99.90
21787;DHT22;11055;50.870;4.316;2023-03-01T08:48:55;2.30;99.90
21787;DHT22;11055;50.870;4.316;2023-03-01T08:51:21;2.30;99.90
21787;DHT22;11055;50.870;4.316;2023-03-01T08:53:48;2.30;99.90
21787;DHT22;11055;50.870;4.316;2023-03-01T08:56:15;2.40;99.90
21787;DHT22;11055;50.870;4.316;2023-03-01T08:58:47;2.50;99.90
21787;DHT22;11055;50.870;4.316;2023-03-01T09:01:15;2.50;99.90
21787;DHT22;11055;50.870;4.316;2023-03-01T09:03:41;2.50;99.90
21787;DHT22;11055;50.870;4.316;2023-03-01T09:06:08;2.70;99.90
21787;DHT22;11055;50.870;4.316;2023-03-01T09:08:38;2.80;99.90
21787;DHT22;11055;50.870;4.316;2023-03-01T09:11:06;2.80;99.90
21787;DHT22;11055;50.870;4.316;2023-03-01T09:13:32;2.90;99.90
21787;DHT22;11055;50.870;4.316;2023-03-01T09:15:58;3.00;99.90
21787;DHT22;11055;50.870;4.316;2023-03-01T09:18:24;3.10;99.90
21787;DHT22;11055;50.870;4.316;2023-03-01T09:20:50;3.10;99.90
21787;DHT22;11055;50.870;4.316;2023-03-01T09:23:16;3.10;99.90
21787;DHT22;11055;50.870;4.316;2023-03-01T09:25:41;3.10;99.90
21787;DHT22;11055;50.870;4.316;2023-03-01T09:28:07;3.10;99.90
21787;DHT22;11055;50.870;4.316;2023-03-01T09:30:33;3.10;99.90
21787;DHT22;11055;50.870;4.316;2023-03-01T09:33:00;3.10;99.90
21787;DHT22;11055;50.870;4.316;2023-03-01T09:35:26;3.10;99.90
21787;DHT22;11055;50.870;4.316;2023-03-01T09:37:51;3.20;99.90
21787;DHT22;11055;50.870;4.316;2023-03-01T09:40:23;3.10;99.90
21787;DHT22;11055;50.870;4.316;2023-03-01T09:43:05;3.20;99.90
21787;DHT22;11055;50.870;4.316;2023-03-01T09:45:35;3.40;99.90
21787;DHT22;11055;50.870;4.316;2023-03-01T09:48:02;3.60;99.90
21787;DHT22;11055;50.870;4.316;2023-03-01T09:50:35;3.70;99.90
21787;DHT22;11055;50.870;4.316;2023-03-01T09:53:05;3.80;99.90
21787;DHT22;11055;50.870;4.316;2023-03-01T10:09:37;4.10;99.90
21787;DHT22;11055;50.870;4.316;2023-03-01T10:12:08;4.10;99.90
21787;DHT22;11055;50.870;4.316;2023-03-01T10:19:47;4.00;99.90
21787;DHT22;11055;50.870;4.316;2023-03-01T10:22:17;4.10;99.90
21787;DHT22;11055;50.870;4.316;2023-03-01T10:24:46;4.20;99.90
21787;DHT22;11055;50.870;4.316;2023-03-01T10:30:12;4.30;99.90
21787;DHT22;11055;50.870;4.316;2023-03-01T10:32:42;4.50;99.90
21787;DHT22;11055;50.870;4.316;2023-03-01T10:35:27;4.60;99.90
21787;DHT22;11055;50.870;4.316;2023-03-01T10:38:09;4.70;99.90
21787;DHT22;11055;50.870;4.316;2023-03-01T10:40:36;4.90;99.90
21787;DHT22;11055;50.870;4.316;2023-03-01T10:43:04;5.00;99.90
21787;DHT22;11055;50.870;4.316;2023-03-01T10:45:38;5.00;99.90
21787;DHT22;11055;50.870;4.316;2023-03-01T10:50:30;5.10;99.90
21787;DHT22;11055;50.870;4.316;2023-03-01T10:53:02;5.00;99.90
21787;DHT22;11055;50.870;4.316;2023-03-01T10:55:35;4.90;99.90
21787;DHT22;11055;50.870;4.316;2023-03-01T10:58:20;5.00;99.90
21787;DHT22;11055;50.870;4.316;2023-03-01T11:00:56;5.10;99.90
21787;DHT22;11055;50.870;4.316;2023-03-01T11:03:38;5.20;99.90
21787;DHT22;11055;50.870;4.316;2023-03-01T11:08:42;5.60;99.90
21787;DHT22;11055;50.870;4.316;2023-03-01T11:11:33;5.60;99.90
21787;DHT22;11055;50.870;4.316;2023-03-01T11:16:28;5.30;99.90
21787;DHT22;11055;50.870;4.316;2023-03-01T11:21:47;5.40;99.90
21787;DHT22;11055;50.870;4.316;2023-03-01T11:24:16;5.30;99.90
21787;DHT22;11055;50.870;4.316;2023-03-01T11:26:47;5.40;99.90
21787;DHT22;11055;50.870;4.316;2023-03-01T11:29:36;5.50;99.90
21787;DHT22;11055;50.870;4.316;2023-03-01T11:32:06;5.50;99.90
21787;DHT22;11055;50.870;4.316;2023-03-01T11:37:33;5.50;99.90
21787;DHT22;11055;50.870;4.316;2023-03-01T11:40:10;5.40;99.90
21787;DHT22;11055;50.870;4.316;2023-03-01T11:45:44;5.70;99.90
21787;DHT22;11055;50.870;4.316;2023-03-01T11:56:34;6.20;99.90
21787;DHT22;11055;50.870;4.316;2023-03-01T12:19:37;6.90;98.00
21787;DHT22;11055;50.870;4.316;2023-03-01T12:22:32;7.20;97.00
21787;DHT22;11055;50.870;4.316;2023-03-01T12:33:54;20.80;42.90
21787;DHT22;11055;50.870;4.316;2023-03-01T12:50:21;29.70;24.80
21787;DHT22;11055;50.870;4.316;2023-03-01T12:52:52;27.50;25.40
21787;DHT22;11055;50.870;4.316;2023-03-01T12:55:34;27.90;24.60
21787;DHT22;11055;50.870;4.316;2023-03-01T12:58:07;27.40;25.80
21787;DHT22;11055;50.870;4.316;2023-03-01T13:03:55;30.70;23.40
21787;DHT22;11055;50.870;4.316;2023-03-01T13:09:09;33.50;21.70
21787;DHT22;11055;50.870;4.316;2023-03-01T13:11:42;33.40;20.90
21787;DHT22;11055;50.870;4.316;2023-03-01T13:16:46;31.20;20.40
21787;DHT22;11055;50.870;4.316;2023-03-01T13:19:25;32.30;20.80
21787;DHT22;11055;50.870;4.316;2023-03-01T13:21:53;31.30;20.60
21787;DHT22;11055;50.870;4.316;2023-03-01T13:24:43;31.30;20.80
21787;DHT22;11055;50.870;4.316;2023-03-01T13:34:47;33.40;20.00
21787;DHT22;11055;50.870;4.316;2023-03-01T13:37:25;31.40;20.00
21787;DHT22;11055;50.870;4.316;2023-03-01T13:39:51;30.50;21.40
21787;DHT22;11055;50.870;4.316;2023-03-01T13:42:39;29.40;21.40
21787;DHT22;11055;50.870;4.316;2023-03-01T13:48:04;31.10;20.80
21787;DHT22;11055;50.870;4.316;2023-03-01T13:50:38;34.70;19.60
21787;DHT22;11055;50.870;4.316;2023-03-01T13:53:16;37.00;18.80
21787;DHT22;11055;50.870;4.316;2023-03-01T13:59:02;38.40;17.50
21787;DHT22;11055;50.870;4.316;2023-03-01T14:01:35;35.90;18.00
21787;DHT22;11055;50.870;4.316;2023-03-01T14:04:02;33.70;18.10
21787;DHT22;11055;50.870;4.316;2023-03-01T14:06:31;33.60;18.60
21787;DHT22;11055;50.870;4.316;2023-03-01T14:09:20;30.20;20.20
21787;DHT22;11055;50.870;4.316;2023-03-01T14:17:52;30.60;20.30
21787;DHT22;11055;50.870;4.316;2023-03-01T14:20:22;27.70;21.60
21787;DHT22;11055;50.870;4.316;2023-03-01T14:22:50;28.50;21.90
21787;DHT22;11055;50.870;4.316;2023-03-01T14:25:25;28.40;21.30
21787;DHT22;11055;50.870;4.316;2023-03-01T14:28:03;26.40;22.10
21787;DHT22;11055;50.870;4.316;2023-03-01T14:30:34;26.80;22.70
21787;DHT22;11055;50.870;4.316;2023-03-01T14:33:02;26.40;22.30
21787;DHT22;11055;50.870;4.316;2023-03-01T14:35:30;25.80;23.00
21787;DHT22;11055;50.870;4.316;2023-03-01T14:37:57;22.80;24.50
21787;DHT22;11055;50.870;4.316;2023-03-01T14:40:35;18.40;28.70
21787;DHT22;11055;50.870;4.316;2023-03-01T14:43:12;16.50;32.10
21787;DHT22;11055;50.870;4.316;2023-03-01T14:45:47;15.10;34.80
21787;DHT22;11055;50.870;4.316;2023-03-01T14:48:15;14.20;36.70
21787;DHT22;11055;50.870;4.316;2023-03-01T14:50:42;13.00;38.50
21787;DHT22;11055;50.870;4.316;2023-03-01T14:53:19;12.30;40.40
21787;DHT22;11055;50.870;4.316;2023-03-01T14:55:57;11.50;41.90
21787;DHT22;11055;50.870;4.316;2023-03-01T14:58:26;11.10;43.30
21787;DHT22;11055;50.870;4.316;2023-03-01T15:00:55;10.80;43.90
21787;DHT22;11055;50.870;4.316;2023-03-01T15:05:53;10.70;44.30
21787;DHT22;11055;50.870;4.316;2023-03-01T15:08:23;10.50;44.70
21787;DHT22;11055;50.870;4.316;2023-03-01T15:11:43;10.60;44.80
21787;DHT22;11055;50.870;4.316;2023-03-01T15:13:44;10.40;44.80
21787;DHT22;11055;50.870;4.316;2023-03-01T15:16:18;10.10;45.30
21787;DHT22;11055;50.870;4.316;2023-03-01T15:18:48;9.80;46.10
21787;DHT22;11055;50.870;4.316;2023-03-01T15:21:26;9.70;46.70
21787;DHT22;11055;50.870;4.316;2023-03-01T15:26:52;9.20;47.70
21787;DHT22;11055;50.870;4.316;2023-03-01T15:29:28;9.40;48.00
21787;DHT22;11055;50.870;4.316;2023-03-01T15:31:56;9.30;48.40
21787;DHT22;11055;50.870;4.316;2023-03-01T15:34:29;9.10;48.50
21787;DHT22;11055;50.870;4.316;2023-03-01T15:36:57;8.90;49.20
21787;DHT22;11055;50.870;4.316;2023-03-01T15:42:06;8.90;49.50
21787;DHT22;11055;50.870;4.316;2023-03-01T15:44:35;8.90;49.30
21787;DHT22;11055;50.870;4.316;2023-03-01T15:47:20;9.00;49.50
21787;DHT22;11055;50.870;4.316;2023-03-01T15:49:47;9.10;49.20
21787;DHT22;11055;50.870;4.316;2023-03-01T15:52:27;9.10;49.20
21787;DHT22;11055;50.870;4.316;2023-03-01T15:55:04;9.00;49.10
21787;DHT22;11055;50.870;4.316;2023-03-01T15:57:30;8.90;48.90
21787;DHT22;11055;50.870;4.316;2023-03-01T15:59:56;8.70;49.40
21787;DHT22;11055;50.870;4.316;2023-03-01T16:02:23;8.70;50.20
21787;DHT22;11055;50.870;4.316;2023-03-01T16:04:49;8.80;50.60
21787;DHT22;11055;50.870;4.316;2023-03-01T16:07:16;8.70;51.00
21787;DHT22;11055;50.870;4.316;2023-03-01T16:09:41;8.60;51.60
21787;DHT22;11055;50.870;4.316;2023-03-01T16:12:13;8.60;52.10
21787;DHT22;11055;50.870;4.316;2023-03-01T16:14:39;8.60;52.30
21787;DHT22;11055;50.870;4.316;2023-03-01T16:17:05;8.50;51.90
21787;DHT22;11055;50.870;4.316;2023-03-01T16:19:32;8.60;52.40
21787;DHT22;11055;50.870;4.316;2023-03-01T16:21:58;8.40;52.20
21787;DHT22;11055;50.870;4.316;2023-03-01T16:24:24;8.40;52.30
21787;DHT22;11055;50.870;4.316;2023-03-01T16:26:51;8.30;52.30
21787;DHT22;11055;50.870;4.316;2023-03-01T16:29:16;8.20;52.50
21787;DHT22;11055;50.870;4.316;2023-03-01T16:31:42;8.20;52.80
21787;DHT22;11055;50.870;4.316;2023-03-01T16:34:08;8.20;52.70
21787;DHT22;11055;50.870;4.316;2023-03-01T16:36:33;8.10;53.00
21787;DHT22;11055;50.870;4.316;2023-03-01T16:39:00;8.00;53.70
21787;DHT22;11055;50.870;4.316;2023-03-01T16:41:27;7.90;54.10
21787;DHT22;11055;50.870;4.316;2023-03-01T16:43:53;7.90;54.50
21787;DHT22;11055;50.870;4.316;2023-03-01T16:46:21;7.90;54.80
21787;DHT22;11055;50.870;4.316;2023-03-01T16:48:47;7.80;55.10
21787;DHT22;11055;50.870;4.316;2023-03-01T16:51:13;7.80;55.30
21787;DHT22;11055;50.870;4.316;2023-03-01T16:53:39;7.80;55.70
21787;DHT22;11055;50.870;4.316;2023-03-01T16:56:08;7.70;56.00
21787;DHT22;11055;50.870;4.316;2023-03-01T16:58:34;7.60;56.60
21787;DHT22;11055;50.870;4.316;2023-03-01T17:01:19;7.60;57.20
21787;DHT22;11055;50.870;4.316;2023-03-01T17:03:46;7.60;57.40
21787;DHT22;11055;50.870;4.316;2023-03-01T17:06:16;7.60;57.40
21787;DHT22;11055;50.870;4.316;2023-03-01T17:08:43;7.60;57.90
21787;DHT22;11055;50.870;4.316;2023-03-01T17:11:11;7.70;58.00
21787;DHT22;11055;50.870;4.316;2023-03-01T17:13:38;7.60;58.30
21787;DHT22;11055;50.870;4.316;2023-03-01T17:16:05;7.70;58.40
21787;DHT22;11055;50.870;4.316;2023-03-01T17:18:31;7.70;58.10
21787;DHT22;11055;50.870;4.316;2023-03-01T17:20:57;7.50;58.70
21787;DHT22;11055;50.870;4.316;2023-03-01T17:23:23;7.40;59.50
21787;DHT22;11055;50.870;4.316;2023-03-01T17:25:49;7.30;60.20
21787;DHT22;11055;50.870;4.316;2023-03-01T17:28:15;7.20;61.00
21787;DHT22;11055;50.870;4.316;2023-03-01T17:30:42;7.10;61.30
21787;DHT22;11055;50.870;4.316;2023-03-01T17:33:10;7.00;62.30
21787;DHT22;11055;50.870;4.316;2023-03-01T17:35:35;7.00;63.10
21787;DHT22;11055;50.870;4.316;2023-03-01T17:38:03;7.00;63.60
21787;DHT22;11055;50.870;4.316;2023-03-01T17:40:29;7.10;63.70
21787;DHT22;11055;50.870;4.316;2023-03-01T17:42:55;7.10;63.50
21787;DHT22;11055;50.870;4.316;2023-03-01T17:45:21;7.10;63.90
21787;DHT22;11055;50.870;4.316;2023-03-01T17:47:47;6.90;64.50
21787;DHT22;11055;50.870;4.316;2023-03-01T17:50:13;6.90;65.40
21787;DHT22;11055;50.870;4.316;2023-03-01T17:52:38;6.90;66.10
21787;DHT22;11055;50.870;4.316;2023-03-01T17:55:06;6.80;66.80
21787;DHT22;11055;50.870;4.316;2023-03-01T17:57:32;6.80;67.30
21787;DHT22;11055;50.870;4.316;2023-03-01T17:59:58;6.80;67.70
21787;DHT22;11055;50.870;4.316;2023-03-01T18:02:24;6.70;67.90
21787;DHT22;11055;50.870;4.316;2023-03-01T18:04:51;6.70;68.20
21787;DHT22;11055;50.870;4.316;2023-03-01T18:07:18;6.70;68.60
21787;DHT22;11055;50.870;4.316;2023-03-01T18:09:44;6.60;69.20
21787;DHT22;11055;50.870;4.316;2023-03-01T18:12:09;6.60;69.70